createdAt,value
2024-05-09T00:03:01.648Z,100778.34
2024-05-09T00:06:09.183Z,100777.44
2024-05-09T00:09:11.831Z,100771.28
2024-05-09T00:12:14.450Z,100774.81
2024-05-09T00:15:17.637Z,100768.66
2024-05-09T00:18:23.690Z,100760.72
2024-05-09T00:21:26.355Z,100770.41
2024-05-09T00:24:28.970Z,100764.25
2024-05-09T00:27:31.649Z,100770.41
2024-05-09T00:30:37.054Z,100767.75
2024-05-09T00:33:40.384Z,100767.69
2024-05-09T00:36:45.439Z,100756.25
2024-05-09T00:39:51.284Z,100769.41
2024-05-09T00:42:56.060Z,100758.91
2024-05-09T00:45:59.634Z,100765.09
2024-05-09T00:49:02.822Z,100763.22
2024-05-09T00:52:05.549Z,100761.53
2024-05-09T00:55:10.323Z,100761.47
2024-05-09T00:58:17.579Z,100771.94
2024-05-09T01:01:23.230Z,100764.84
2024-05-09T01:04:28.099Z,100769.22
2024-05-09T01:07:30.693Z,100771.91
2024-05-09T01:10:35.417Z,100769.28
2024-05-09T01:13:41.890Z,100776.28
2024-05-09T01:16:44.613Z,100769.25
2024-05-09T01:19:47.496Z,100770.97
2024-05-09T01:22:52.999Z,100775.38
2024-05-09T01:26:00.682Z,100760.44
2024-05-09T01:29:03.893Z,100767.44
2024-05-09T01:32:06.768Z,100757.78
2024-05-09T01:35:09.334Z,100767.41
2024-05-09T01:38:13.906Z,100761.22
2024-05-09T01:41:16.877Z,100770.00
2024-05-09T01:44:22.219Z,100768.25
2024-05-09T01:47:27.811Z,100766.50
2024-05-09T01:50:38.676Z,100763.84
2024-05-09T01:53:49.264Z,100763.72
2024-05-09T01:56:51.919Z,100759.28
2024-05-09T01:59:54.515Z,100768.06
2024-05-09T02:02:58.905Z,100766.31
2024-05-09T02:06:02.826Z,100763.69
2024-05-09T02:09:05.614Z,100761.00
2024-05-09T02:12:08.395Z,100760.06
2024-05-09T02:15:18.775Z,100758.41
2024-05-09T02:18:22.137Z,100768.91
2024-05-09T02:21:24.848Z,100763.63
2024-05-09T02:24:27.776Z,100769.75
2024-05-09T02:27:30.376Z,100766.25
2024-05-09T02:30:40.564Z,100762.72
2024-05-09T02:33:44.779Z,100762.69
2024-05-09T02:36:47.432Z,100765.31
2024-05-09T02:39:50.893Z,100759.16
2024-05-09T02:42:53.480Z,100766.19
2024-05-09T02:45:56.022Z,100767.03
2024-05-09T02:48:58.682Z,100767.75
2024-05-09T02:52:01.896Z,100760.66
2024-05-09T02:55:07.233Z,100766.78
2024-05-09T02:58:10.379Z,100757.06
2024-05-09T03:01:13.509Z,100760.63
2024-05-09T03:04:16.255Z,100764.91
2024-05-09T03:07:20.203Z,100768.34
2024-05-09T03:10:28.330Z,100758.56
2024-05-09T03:13:34.067Z,100752.41
2024-05-09T03:16:40.455Z,100756.72
2024-05-09T03:19:44.017Z,100758.41
2024-05-09T03:22:47.112Z,100759.25
2024-05-09T03:25:54.357Z,100759.13
2024-05-09T03:28:57.058Z,100750.50
2024-05-09T03:32:01.641Z,100756.72
2024-05-09T03:35:04.534Z,100761.88
2024-05-09T03:38:10.359Z,100765.53
2024-05-09T03:41:16.920Z,100763.84
2024-05-09T03:44:19.604Z,100766.53
2024-05-09T03:47:25.626Z,100771.88
2024-05-09T03:50:35.544Z,100764.03
2024-05-09T03:53:39.990Z,100770.22
2024-05-09T03:56:46.044Z,100778.09
2024-05-09T03:59:48.918Z,100778.16
2024-05-09T04:02:54.304Z,100775.34
2024-05-09T04:05:57.386Z,100779.59
2024-05-09T04:09:02.138Z,100781.28
2024-05-09T04:12:07.364Z,100786.56
2024-05-09T04:15:18.576Z,100796.25
2024-05-09T04:18:24.642Z,100791.06
2024-05-09T04:21:27.231Z,100797.22
2024-05-09T04:24:29.930Z,100796.53
2024-05-09T04:27:35.588Z,100808.03
2024-05-09T04:30:41.778Z,100810.75
2024-05-09T04:33:48.297Z,100809.03
2024-05-09T04:36:51.348Z,100800.28
2024-05-09T04:39:54.731Z,100802.00
2024-05-09T04:42:59.886Z,100808.09
2024-05-09T04:46:02.547Z,100809.16
2024-05-09T04:49:07.959Z,100812.78
2024-05-09T04:52:10.582Z,100811.31
2024-05-09T04:55:13.238Z,100813.03
2024-05-09T04:58:18.030Z,100820.28
2024-05-09T05:01:21.245Z,100824.75
2024-05-09T05:04:26.457Z,100829.31
2024-05-09T05:07:29.037Z,100831.03
2024-05-09T05:10:36.057Z,100831.91
2024-05-09T05:13:41.517Z,100830.19
2024-05-09T05:16:49.744Z,100825.81
2024-05-09T05:19:54.988Z,100832.63
2024-05-09T05:22:57.514Z,100834.59
2024-05-09T05:26:02.716Z,100828.31
2024-05-09T05:29:05.362Z,100831.22
2024-05-09T05:32:10.692Z,100839.09
2024-05-09T05:35:16.656Z,100837.50
2024-05-09T05:38:27.494Z,100836.84
2024-05-09T05:41:31.036Z,100839.69
2024-05-09T05:44:33.943Z,100851.16
2024-05-09T05:47:37.844Z,100847.53
2024-05-09T05:50:43.229Z,100852.94
2024-05-09T05:53:46.386Z,100851.09
2024-05-09T05:56:51.448Z,100859.09
2024-05-09T05:59:57.260Z,100854.81
2024-05-09T06:02:59.940Z,100861.03
2024-05-09T06:06:03.007Z,100869.09
2024-05-09T06:09:05.775Z,100866.53
2024-05-09T06:12:09.108Z,100871.84
2024-05-09T06:15:12.797Z,100868.22
2024-05-09T06:18:15.535Z,100862.06
2024-05-09T06:21:18.328Z,100868.28
2024-05-09T06:24:26.271Z,100874.28
2024-05-09T06:27:32.615Z,100873.22
2024-05-09T06:30:42.559Z,100877.72
2024-05-09T06:33:47.064Z,100874.13
2024-05-09T06:36:50.419Z,100879.50
2024-05-09T06:39:53.129Z,100875.31
2024-05-09T06:42:59.367Z,100871.06
2024-05-09T06:46:01.999Z,100881.72
2024-05-09T06:49:08.671Z,100876.75
2024-05-09T06:52:14.015Z,100895.44
2024-05-09T06:55:16.767Z,100884.16
2024-05-09T06:58:21.965Z,100889.56
2024-05-09T07:01:45.488Z,100887.81
2024-05-09T07:04:53.443Z,100884.31
2024-05-09T07:07:56.400Z,100887.84
2024-05-09T07:10:59.467Z,100879.81
2024-05-09T07:14:06.368Z,100884.28
2024-05-09T07:17:09.163Z,100877.16
2024-05-09T07:20:16.562Z,100878.19
2024-05-09T07:23:26.214Z,100881.72
2024-05-09T07:26:29.092Z,100869.25
2024-05-09T07:29:37.871Z,100876.44
2024-05-09T07:32:41.312Z,100875.56
2024-05-09T07:35:43.779Z,100870.28
2024-05-09T07:38:46.826Z,100877.41
2024-05-09T07:41:49.783Z,100870.31
2024-05-09T07:44:56.933Z,100869.34
2024-05-09T07:54:16.378Z,100859.81
2024-05-09T07:57:19.834Z,100862.94
2024-05-09T08:00:31.025Z,100862.81
2024-05-09T08:03:35.006Z,100860.22
2024-05-09T08:06:42.701Z,100863.16
2024-05-09T08:09:45.933Z,100858.16
2024-05-09T08:12:55.343Z,100862.00
2024-05-09T08:15:58.674Z,100862.81
2024-05-09T08:19:04.127Z,100862.81
2024-05-09T08:22:09.903Z,100861.69
2024-05-09T08:25:13.989Z,100874.81
2024-05-09T08:28:20.621Z,100861.34
2024-05-09T08:31:25.843Z,100874.53
2024-05-09T08:34:28.664Z,100870.75
2024-05-09T08:37:38.880Z,100870.41
2024-05-09T08:40:46.918Z,100872.88
2024-05-09T08:43:55.859Z,100869.00
2024-05-09T08:47:00.801Z,100866.09
2024-05-09T08:50:05.316Z,100870.66
2024-05-09T08:53:12.644Z,100862.38
2024-05-09T08:56:17.708Z,100865.00
2024-05-09T08:59:32.274Z,100874.63
2024-05-09T09:02:36.408Z,100868.06
2024-05-09T09:05:41.348Z,100865.59
2024-05-09T09:08:45.247Z,100856.84
2024-05-09T09:11:47.825Z,100861.41
2024-05-09T09:14:50.559Z,100856.53
2024-05-09T09:18:00.904Z,100867.19
2024-05-09T09:21:12.184Z,100870.25
2024-05-09T09:24:16.814Z,100862.97
2024-05-09T09:27:22.674Z,100859.38
2024-05-09T09:30:35.074Z,100859.03
2024-05-09T09:33:46.064Z,100856.72
2024-05-09T09:36:56.120Z,100864.00
2024-05-09T09:40:04.799Z,100851.34
2024-05-09T09:43:12.482Z,100863.66
2024-05-09T09:46:15.260Z,100862.97
2024-05-09T09:49:18.006Z,100865.00
2024-05-09T09:52:26.461Z,100860.66
2024-05-09T09:55:32.044Z,100852.09
2024-05-09T09:58:35.000Z,100856.34
2024-05-09T10:01:37.743Z,100844.16
2024-05-09T10:04:40.533Z,100850.88
2024-05-09T10:07:44.745Z,100850.16
2024-05-09T10:10:50.074Z,100844.75
2024-05-09T10:13:53.862Z,100848.66
2024-05-09T10:17:06.131Z,100831.09
2024-05-09T10:20:14.909Z,100832.22
2024-05-09T10:23:27.615Z,100832.69
2024-05-09T10:26:42.119Z,100831.69
2024-05-09T10:29:59.470Z,100830.22
2024-05-09T10:33:06.295Z,100818.59
2024-05-09T10:36:27.356Z,100821.69
2024-05-09T10:39:34.992Z,100823.81
2024-05-09T10:42:37.613Z,100813.06
2024-05-09T10:45:40.324Z,100801.00
2024-05-09T10:48:43.893Z,100808.56
2024-05-09T10:51:48.187Z,100803.28
2024-05-09T10:54:53.200Z,100812.44
2024-05-09T10:58:01.539Z,100808.44
2024-05-09T11:01:06.958Z,100800.03
2024-05-09T11:04:10.273Z,100811.16
2024-05-09T11:07:17.023Z,100794.19
2024-05-09T11:10:27.340Z,100804.69
2024-05-09T11:13:38.384Z,100804.25
2024-05-09T11:16:43.476Z,100801.06
2024-05-09T11:19:46.786Z,100807.16
2024-05-09T11:22:49.704Z,100791.19
2024-05-09T11:25:55.755Z,100796.69
2024-05-09T11:29:01.586Z,100784.06
2024-05-09T11:32:05.916Z,100789.69
2024-05-09T11:35:10.713Z,100777.03
2024-05-09T11:38:13.538Z,100787.31
2024-05-09T11:41:18.476Z,100786.75
2024-05-09T11:44:21.294Z,100778.34
2024-05-09T11:47:23.898Z,100769.28
2024-05-09T11:50:32.761Z,100778.22
2024-05-09T11:53:38.119Z,100777.94
2024-05-09T11:56:40.659Z,100774.38
2024-05-09T11:59:46.016Z,100781.16
2024-05-09T12:02:48.951Z,100763.41
2024-05-09T12:05:51.632Z,100769.38
2024-05-09T12:08:54.251Z,100759.47
2024-05-09T12:11:57.069Z,100758.28
2024-05-09T12:14:59.704Z,100753.63
2024-05-09T12:18:05.596Z,100751.41
2024-05-09T12:21:10.713Z,100747.53
2024-05-09T12:24:15.240Z,100743.41
2024-05-09T12:27:19.603Z,100735.44
2024-05-09T12:30:32.675Z,100746.84
2024-05-09T12:33:42.240Z,100742.41
2024-05-09T12:36:54.297Z,100740.84
2024-05-09T12:40:03.728Z,100742.88
2024-05-09T12:43:08.116Z,100739.19
2024-05-09T12:46:24.007Z,100726.84
2024-05-09T12:49:27.193Z,100729.00
2024-05-09T12:52:29.935Z,100734.50
2024-05-09T12:55:43.936Z,100728.31
2024-05-09T12:58:51.699Z,100725.84
2024-05-09T13:02:00.411Z,100717.38
2024-05-09T13:05:06.283Z,100722.25
2024-05-09T13:08:08.873Z,100706.97
2024-05-09T13:11:11.563Z,100706.56
2024-05-09T13:14:14.171Z,100716.06
2024-05-09T13:17:17.405Z,100710.28
2024-05-09T13:20:29.010Z,100709.97
2024-05-09T13:23:37.973Z,100700.31
2024-05-09T13:26:40.516Z,100705.38
2024-05-09T13:29:44.308Z,100698.06
2024-05-09T13:32:47.088Z,100703.66
2024-05-09T13:35:50.992Z,100701.22
2024-05-09T13:38:53.816Z,100695.88
2024-05-09T13:41:56.368Z,100693.88
2024-05-09T13:44:58.937Z,100687.25
2024-05-09T13:48:06.870Z,100678.25
2024-05-09T13:51:09.877Z,100682.84
2024-05-09T13:54:16.678Z,100680.53
2024-05-09T13:57:21.533Z,100685.84
2024-05-09T14:03:30.639Z,100686.47
2024-05-09T14:06:33.438Z,100682.81
2024-05-09T14:09:38.802Z,100672.06
2024-05-09T14:12:41.627Z,100668.72
2024-05-09T14:15:44.241Z,100675.94
2024-05-09T14:18:46.937Z,100675.97
2024-05-09T14:21:52.253Z,100677.34
2024-05-09T14:24:55.006Z,100668.56
2024-05-09T14:27:58.228Z,100668.03
2024-05-09T14:31:03.774Z,100669.22
2024-05-09T14:34:06.715Z,100677.47
2024-05-09T14:37:11.871Z,100670.75
2024-05-09T14:40:30.399Z,100669.94
2024-05-09T14:43:38.115Z,100674.19
2024-05-09T14:46:43.660Z,100672.22
2024-05-09T14:49:48.357Z,100659.97
2024-05-09T14:52:51.064Z,100663.72
2024-05-09T14:55:53.930Z,100662.16
2024-05-09T14:58:59.024Z,100653.13
2024-05-09T15:02:02.105Z,100651.72
2024-05-09T15:05:08.279Z,100653.41
2024-05-09T15:08:11.012Z,100657.06
2024-05-09T15:11:15.824Z,100650.56
2024-05-09T15:14:20.784Z,100647.03
2024-05-09T15:17:26.795Z,100647.53
2024-05-09T15:20:34.700Z,100642.56
2024-05-09T15:23:39.349Z,100641.47
2024-05-09T15:26:41.945Z,100633.06
2024-05-09T15:29:44.686Z,100632.09
2024-05-09T15:32:47.555Z,100632.03
2024-05-09T15:35:51.488Z,100633.53
2024-05-09T15:38:55.541Z,100629.16
2024-05-09T15:42:02.556Z,100633.78
2024-05-09T15:45:06.399Z,100636.00
2024-05-09T15:48:09.731Z,100623.97
2024-05-09T15:51:18.396Z,100630.06
2024-05-09T15:54:25.464Z,100631.13
2024-05-09T15:57:28.338Z,100635.69
2024-05-09T16:00:38.588Z,100634.75
2024-05-09T16:03:44.639Z,100629.63
2024-05-09T16:06:48.229Z,100633.84
2024-05-09T16:09:53.190Z,100633.44
2024-05-09T16:12:56.149Z,100633.44
2024-05-09T16:15:58.836Z,100638.16
2024-05-09T16:19:01.905Z,100638.25
2024-05-09T16:22:04.841Z,100631.97
2024-05-09T16:25:07.812Z,100634.84
2024-05-09T16:28:11.090Z,100639.22
2024-05-09T16:31:16.164Z,100639.16
2024-05-09T16:34:23.322Z,100636.22
2024-05-09T16:37:28.849Z,100635.59
2024-05-09T16:40:38.575Z,100640.63
2024-05-09T16:43:47.760Z,100645.22
2024-05-09T16:46:50.497Z,100637.06
2024-05-09T16:49:53.357Z,100632.03
2024-05-09T16:52:55.859Z,100642.34
2024-05-09T16:55:58.398Z,100638.41
2024-05-09T16:59:00.971Z,100641.41
2024-05-09T17:02:06.041Z,100643.25
2024-05-09T17:05:09.109Z,100642.72
2024-05-09T17:08:15.325Z,100638.59
2024-05-09T17:11:17.967Z,100638.19
2024-05-09T17:14:20.468Z,100638.22
2024-05-09T17:17:30.530Z,100652.53
2024-05-09T17:20:37.180Z,100651.31
2024-05-09T17:23:42.524Z,100655.81
2024-05-09T17:26:49.728Z,100656.84
2024-05-09T17:29:52.397Z,100653.66
2024-05-09T17:32:55.212Z,100657.31
2024-05-09T17:36:00.048Z,100648.53
2024-05-09T17:39:04.693Z,100652.28
2024-05-09T17:42:09.745Z,100650.63
2024-05-09T17:45:15.286Z,100656.88
2024-05-09T17:48:18.049Z,100658.84
2024-05-09T17:51:20.712Z,100666.97
2024-05-09T17:54:25.343Z,100664.44
2024-05-09T17:57:27.710Z,100667.22
2024-05-09T18:00:39.553Z,100669.16
2024-05-09T18:03:44.766Z,100673.69
2024-05-09T18:06:47.462Z,100670.22
2024-05-09T18:09:50.140Z,100675.59
2024-05-09T18:12:55.062Z,100681.84
2024-05-09T18:15:57.845Z,100689.91
2024-05-09T18:19:03.311Z,100693.47
2024-05-09T18:22:10.617Z,100689.09
2024-05-09T18:25:15.623Z,100701.53
2024-05-09T18:28:20.989Z,100702.44
2024-05-09T18:31:24.020Z,100703.38
2024-05-09T18:34:26.871Z,100710.41
2024-05-09T18:37:32.033Z,100708.69
2024-05-09T18:40:37.083Z,100714.81
2024-05-09T18:43:45.438Z,100713.06
2024-05-09T18:46:58.734Z,100717.47
2024-05-09T18:50:01.483Z,100724.53
2024-05-09T18:53:07.131Z,100728.03
2024-05-09T18:56:11.966Z,100742.16
2024-05-09T18:59:14.548Z,100736.88
2024-05-09T19:02:17.196Z,100742.09
2024-05-09T19:05:22.544Z,100742.09
2024-05-09T19:08:28.513Z,100751.75
2024-05-09T19:11:36.311Z,100749.94
2024-05-09T19:14:39.119Z,100750.78
2024-05-09T19:17:41.910Z,100751.63
2024-05-09T19:20:47.023Z,100761.28
2024-05-09T19:23:52.319Z,100757.75
2024-05-09T19:26:56.560Z,100763.03
2024-05-09T19:30:03.191Z,100764.72
2024-05-09T19:33:11.127Z,100773.50
2024-05-09T19:36:20.125Z,100764.66
2024-05-09T19:39:23.971Z,100780.50
2024-05-09T19:42:30.182Z,100774.28
2024-05-09T19:45:36.413Z,100778.72
2024-05-09T19:48:42.270Z,100785.75
2024-05-09T19:51:45.037Z,100777.81
2024-05-09T19:54:50.129Z,100788.31
2024-05-09T19:57:55.357Z,100790.84
2024-05-09T20:00:58.090Z,100790.88
2024-05-09T20:04:00.997Z,100793.41
2024-05-09T20:07:03.824Z,100791.56
2024-05-09T20:10:20.440Z,100790.63
2024-05-09T20:13:26.601Z,100792.22
2024-05-09T20:16:29.153Z,100804.47
2024-05-09T20:19:31.824Z,100808.81
2024-05-09T20:22:34.746Z,100815.88
2024-05-09T20:25:39.327Z,100814.03
2024-05-09T20:28:42.450Z,100809.59
2024-05-09T20:31:47.224Z,100817.50
2024-05-09T20:34:50.818Z,100816.59
2024-05-09T20:37:56.917Z,100813.94
2024-05-09T20:40:59.501Z,100821.00
2024-05-09T20:44:03.633Z,100824.38
2024-05-09T20:47:09.762Z,100839.25
2024-05-09T20:50:23.728Z,100835.53
2024-05-09T20:53:35.415Z,100831.94
2024-05-09T20:56:40.476Z,100838.03
2024-05-09T20:59:43.607Z,100836.09
2024-05-09T21:02:46.441Z,100843.03
2024-05-09T21:05:49.235Z,100842.91
2024-05-09T21:08:51.759Z,100847.22
2024-05-09T21:11:54.296Z,100851.59
2024-05-09T21:14:59.303Z,100850.63
2024-05-09T21:18:04.997Z,100846.22
2024-05-09T21:21:07.835Z,100850.63
2024-05-09T21:24:12.567Z,100851.34
2024-05-09T21:27:15.092Z,100857.47
2024-05-09T21:30:26.788Z,100854.72
2024-05-09T21:33:36.001Z,100861.63
2024-05-09T21:36:40.939Z,100862.44
2024-05-09T21:39:43.534Z,100864.09
2024-05-09T21:42:46.146Z,100864.91
2024-05-09T21:45:48.867Z,100863.13
2024-05-09T21:48:51.520Z,100860.41
2024-05-09T21:51:54.160Z,100866.53
2024-05-09T21:54:56.787Z,100865.69
2024-05-09T21:57:59.520Z,100868.34
2024-05-09T22:01:06.026Z,100860.44
2024-05-09T22:04:08.762Z,100870.16
2024-05-09T22:07:11.425Z,100870.28
2024-05-09T22:10:22.695Z,100868.53
2024-05-09T22:13:31.723Z,100870.34
2024-05-09T22:16:34.361Z,100867.66
2024-05-09T22:19:37.056Z,100873.66
2024-05-09T22:22:39.833Z,100872.63
2024-05-09T22:25:42.585Z,100878.72
2024-05-09T22:28:47.675Z,100887.28
2024-05-09T22:31:50.267Z,100879.25
2024-05-09T22:34:52.871Z,100878.25
2024-05-09T22:37:57.619Z,100876.47
2024-05-09T22:41:00.344Z,100882.38
2024-05-09T22:44:02.816Z,100875.28
2024-05-09T22:47:05.226Z,100884.00
2024-05-09T22:50:16.243Z,100887.50
2024-05-09T22:53:25.914Z,100881.28
2024-05-09T22:56:31.887Z,100881.00
2024-05-09T22:59:34.472Z,100884.44
2024-05-09T23:02:37.283Z,100886.06
2024-05-09T23:05:42.135Z,100888.69
2024-05-09T23:08:44.728Z,100884.06
2024-05-09T23:11:47.278Z,100888.25
2024-05-09T23:14:50.203Z,100879.28
2024-05-09T23:17:56.062Z,100879.19
2024-05-09T23:21:02.899Z,100884.41
2024-05-09T23:24:05.727Z,100889.47
2024-05-09T23:27:08.289Z,100888.59
2024-05-09T23:30:12.589Z,100892.81
2024-05-09T23:33:18.217Z,100892.91
2024-05-09T23:36:20.817Z,100887.44
2024-05-09T23:39:23.350Z,100886.66
2024-05-09T23:42:25.918Z,100886.66
2024-05-09T23:45:30.967Z,100886.66
2024-05-09T23:48:34.204Z,100886.72
2024-05-09T23:51:39.419Z,100883.19
2024-05-09T23:54:42.935Z,100886.44
2024-05-09T23:57:45.614Z,100882.88
